createdAt,value
2023-05-04T00:00:11.997Z,100736.19
2023-05-04T00:00:43.636Z,100730.91
2023-05-04T00:01:15.157Z,100728.34
2023-05-04T00:01:46.683Z,100728.44
2023-05-04T00:02:18.315Z,100731.06
2023-05-04T00:02:50.020Z,100732.75
2023-05-04T00:03:21.869Z,100721.50
2023-05-04T00:03:53.662Z,100731.16
2023-05-04T00:04:25.362Z,100725.97
2023-05-04T00:04:56.942Z,100726.81
2023-05-04T00:05:28.537Z,100726.81
2023-05-04T00:06:00.111Z,100723.31
2023-05-04T00:06:31.670Z,100718.75
2023-05-04T00:07:03.241Z,100725.88
2023-05-04T00:07:34.850Z,100721.50
2023-05-04T00:08:06.407Z,100723.31
2023-05-04T00:08:38.023Z,100718.94
2023-05-04T00:09:10.919Z,100725.97
2023-05-04T00:09:42.474Z,100723.22
2023-05-04T00:10:14.072Z,100720.56
2023-05-04T00:10:45.690Z,100718.75
2023-05-04T00:11:17.242Z,100717.94
2023-05-04T00:11:48.752Z,100719.72
2023-05-04T00:12:20.289Z,100720.66
2023-05-04T00:12:51.925Z,100717.94
2023-05-04T00:13:23.896Z,100714.34
2023-05-04T00:13:55.482Z,100715.38
2023-05-04T00:14:27.028Z,100705.63
2023-05-04T00:14:58.620Z,100716.13
2023-05-04T00:15:30.209Z,100711.78
2023-05-04T00:16:01.952Z,100714.44
2023-05-04T00:16:34.490Z,100709.13
2023-05-04T00:17:06.071Z,100712.81
2023-05-04T00:17:37.699Z,100702.22
2023-05-04T00:18:09.301Z,100706.69
2023-05-04T00:18:40.816Z,100703.84
2023-05-04T00:19:12.383Z,100704.88
2023-05-04T00:19:43.939Z,100705.81
2023-05-04T00:20:15.540Z,100705.81
2023-05-04T00:20:47.075Z,100706.59
2023-05-04T00:21:18.704Z,100699.47
2023-05-04T00:21:50.284Z,100703.06
2023-05-04T00:22:21.775Z,100702.41
2023-05-04T00:22:53.303Z,100704.13
2023-05-04T00:23:24.882Z,100695.22
2023-05-04T00:23:56.463Z,100697.03
2023-05-04T00:24:28.118Z,100695.13
2023-05-04T00:24:59.632Z,100697.03
2023-05-04T00:25:31.142Z,100686.44
2023-05-04T00:26:02.668Z,100694.47
2023-05-04T00:26:34.270Z,100695.22
2023-05-04T00:27:05.835Z,100696.19
2023-05-04T00:27:37.457Z,100698.91
2023-05-04T00:28:09.042Z,100691.81
2023-05-04T00:28:40.598Z,100698.03
2023-05-04T00:29:12.131Z,100696.28
2023-05-04T00:29:43.657Z,100702.41
2023-05-04T00:30:15.370Z,100697.09
2023-05-04T00:30:46.879Z,100700.50
2023-05-04T00:31:18.409Z,100695.22
2023-05-04T00:31:50.074Z,100698.81
2023-05-04T00:32:21.732Z,100704.97
2023-05-04T00:32:53.284Z,100697.09
2023-05-04T00:33:24.873Z,100703.25
2023-05-04T00:33:56.497Z,100697.19
2023-05-04T00:34:28.852Z,100695.53
2023-05-04T00:35:00.463Z,100694.56
2023-05-04T00:35:32.054Z,100696.44
2023-05-04T00:36:03.914Z,100688.59
2023-05-04T00:36:35.512Z,100690.22
2023-05-04T00:37:07.091Z,100695.53
2023-05-04T00:37:38.705Z,100688.50
2023-05-04T00:38:10.245Z,100694.72
2023-05-04T00:38:50.727Z,100689.44
2023-05-04T00:39:22.264Z,100689.44
2023-05-04T00:39:53.814Z,100697.38
2023-05-04T00:40:25.348Z,100696.44
2023-05-04T00:40:56.936Z,100692.88
2023-05-04T00:41:28.431Z,100697.28
2023-05-04T00:42:00.075Z,100697.38
2023-05-04T00:42:31.594Z,100689.63
2023-05-04T00:43:03.135Z,100694.91
2023-05-04T00:43:34.726Z,100693.22
2023-05-04T00:44:06.318Z,100687.84
2023-05-04T00:44:37.910Z,100689.63
2023-05-04T00:45:09.633Z,100692.28
2023-05-04T00:45:41.328Z,100692.09
2023-05-04T00:46:12.900Z,100689.44
2023-05-04T00:46:44.478Z,100693.06
2023-05-04T00:47:16.157Z,100680.75
2023-05-04T00:47:48.369Z,100686.97
2023-05-04T00:48:19.999Z,100690.59
2023-05-04T00:48:51.567Z,100696.63
2023-05-04T00:49:23.151Z,100687.94
2023-05-04T00:49:54.707Z,100685.38
2023-05-04T00:50:26.260Z,100689.72
2023-05-04T00:50:57.826Z,100682.81
2023-05-04T00:51:29.404Z,100685.38
2023-05-04T00:52:00.979Z,100685.38
2023-05-04T00:52:32.478Z,100681.03
2023-05-04T00:53:05.657Z,100684.50
2023-05-04T00:53:37.389Z,100687.06
2023-05-04T00:54:08.975Z,100683.56
2023-05-04T00:54:41.657Z,100681.13
2023-05-04T00:55:13.182Z,100687.28
2023-05-04T00:55:44.712Z,100681.03
2023-05-04T00:56:16.512Z,100675.72
2023-05-04T00:56:48.081Z,100686.22
2023-05-04T00:57:19.695Z,100675.63
2023-05-04T00:57:51.204Z,100678.28
2023-05-04T00:58:22.710Z,100683.50
2023-05-04T00:58:54.333Z,100668.44
2023-05-04T00:59:25.955Z,100670.25
2023-05-04T00:59:57.664Z,100675.63
2023-05-04T01:00:29.236Z,100673.84
2023-05-04T01:01:01.053Z,100665.06
2023-05-04T01:01:32.698Z,100669.41
2023-05-04T01:02:04.404Z,100666.75
2023-05-04T01:02:36.039Z,100671.09
2023-05-04T01:03:07.726Z,100663.16
2023-05-04T01:03:39.458Z,100663.34
2023-05-04T01:04:11.066Z,100669.59
2023-05-04T01:04:42.767Z,100672.25
2023-05-04T01:05:14.337Z,100658.03
2023-05-04T01:06:15.020Z,100662.50
2023-05-04T01:06:49.235Z,100669.78
2023-05-04T01:07:47.311Z,100658.25
2023-05-04T01:08:19.075Z,100665.41
2023-05-04T01:08:55.735Z,100663.63
2023-05-04T01:09:36.854Z,100662.69
2023-05-04T01:10:12.385Z,100658.25
2023-05-04T01:10:52.494Z,100659.94
2023-05-04T01:11:34.507Z,100655.53
2023-05-04T01:12:06.845Z,100662.50
2023-05-04T01:12:41.688Z,100667.88
2023-05-04T01:13:14.154Z,100670.53
2023-05-04T01:13:45.894Z,100661.75
2023-05-04T01:14:17.442Z,100662.59
2023-05-04T01:14:49.057Z,100668.84
2023-05-04T01:15:20.618Z,100670.72
2023-05-04T01:15:52.209Z,100659.09
2023-05-04T01:16:23.793Z,100661.84
2023-05-04T01:16:57.182Z,100662.78
2023-05-04T01:17:28.922Z,100654.00
2023-05-04T01:18:00.557Z,100656.53
2023-05-04T01:18:32.090Z,100660.91
2023-05-04T01:19:03.681Z,100667.13
2023-05-04T01:19:35.341Z,100665.31
2023-05-04T01:20:07.373Z,100657.38
2023-05-04T01:20:38.874Z,100657.47
2023-05-04T01:21:10.451Z,100662.78
2023-05-04T01:21:42.066Z,100655.59
2023-05-04T01:22:13.536Z,100656.53
2023-05-04T01:22:45.064Z,100657.47
2023-05-04T01:23:16.625Z,100657.47
2023-05-04T01:23:48.178Z,100654.00
2023-05-04T01:24:19.856Z,100654.81
2023-05-04T01:24:51.396Z,100656.63
2023-05-04T01:25:23.454Z,100656.53
2023-05-04T01:26:14.233Z,100653.06
2023-05-04T01:26:47.660Z,100653.16
2023-05-04T01:27:21.271Z,100651.34
2023-05-04T01:27:56.494Z,100652.09
2023-05-04T01:28:32.356Z,100646.69
2023-05-04T01:29:03.817Z,100651.06
2023-05-04T01:29:38.820Z,100649.34
2023-05-04T01:30:20.961Z,100647.66
2023-05-04T01:30:54.146Z,100644.06
2023-05-04T01:31:26.094Z,100658.16
2023-05-04T01:31:57.848Z,100655.53
2023-05-04T01:32:29.512Z,100654.66
2023-05-04T01:33:01.200Z,100659.00
2023-05-04T01:33:32.835Z,100653.91
2023-05-04T01:34:04.469Z,100655.78
2023-05-04T01:34:36.124Z,100656.53
2023-05-04T01:35:08.854Z,100651.25
2023-05-04T01:35:40.553Z,100645.94
2023-05-04T01:36:12.194Z,100645.19
2023-05-04T01:36:44.312Z,100649.72
2023-05-04T01:37:15.830Z,100648.88
2023-05-04T01:37:47.362Z,100659.56
2023-05-04T01:38:18.913Z,100650.59
2023-05-04T01:38:53.426Z,100649.81
2023-05-04T01:39:24.955Z,100655.97
2023-05-04T01:39:56.587Z,100653.31
2023-05-04T01:40:28.156Z,100655.88
2023-05-04T01:40:59.689Z,100660.31
2023-05-04T01:41:31.224Z,100655.00
2023-05-04T01:42:02.785Z,100655.88
2023-05-04T01:42:34.313Z,100656.91
2023-05-04T01:43:06.615Z,100650.78
2023-05-04T01:43:38.117Z,100653.41
2023-05-04T01:44:09.722Z,100657.75
2023-05-04T01:44:41.386Z,100651.53
2023-05-04T01:45:13.089Z,100656.06
2023-05-04T01:45:44.623Z,100657.75
2023-05-04T01:46:16.235Z,100656.06
2023-05-04T01:46:47.831Z,100655.97
2023-05-04T01:47:19.432Z,100656.72
2023-05-04T01:47:51.080Z,100657.75
2023-05-04T01:48:22.724Z,100656.91
2023-05-04T01:48:54.352Z,100662.19
2023-05-04T01:49:26.005Z,100655.97
2023-05-04T01:49:57.685Z,100661.34
2023-05-04T01:50:29.476Z,100658.72
2023-05-04T01:51:01.140Z,100652.53
2023-05-04T01:51:32.712Z,100660.47
2023-05-04T01:52:04.265Z,100651.78
2023-05-04T01:52:35.801Z,100656.91
2023-05-04T01:53:07.360Z,100657.97
2023-05-04T01:53:38.857Z,100657.09
2023-05-04T01:54:10.392Z,100661.34
2023-05-04T01:54:41.944Z,100658.91
2023-05-04T01:55:13.565Z,100658.81
2023-05-04T01:55:45.399Z,100651.78
2023-05-04T01:56:16.915Z,100654.59
2023-05-04T01:56:48.425Z,100654.44
2023-05-04T01:57:19.982Z,100652.91
2023-05-04T01:57:51.606Z,100657.41
2023-05-04T01:58:23.184Z,100651.19
2023-05-04T01:58:54.734Z,100657.50
2023-05-04T01:59:26.303Z,100654.88
2023-05-04T01:59:57.923Z,100657.25
2023-05-04T02:00:29.492Z,100657.25
2023-05-04T02:01:01.141Z,100658.97
2023-05-04T02:01:32.689Z,100649.38
2023-05-04T02:02:04.433Z,100651.94
2023-05-04T02:02:36.208Z,100655.56
2023-05-04T02:03:07.907Z,100651.28
2023-05-04T02:03:39.492Z,100662.03
2023-05-04T02:04:11.270Z,100654.69
2023-05-04T02:04:43.140Z,100652.13
2023-05-04T02:05:14.723Z,100654.03
2023-05-04T02:05:46.263Z,100658.56
2023-05-04T02:06:17.845Z,100657.50
2023-05-04T02:06:49.464Z,100656.50
2023-05-04T02:07:21.027Z,100651.28
2023-05-04T02:07:52.636Z,100652.13
2023-05-04T02:08:24.229Z,100653.84
2023-05-04T02:08:55.802Z,100661.03
2023-05-04T02:09:27.392Z,100658.38
2023-05-04T02:09:58.921Z,100653.84
2023-05-04T02:10:30.503Z,100658.19
2023-05-04T02:11:02.070Z,100652.03
2023-05-04T02:11:33.651Z,100649.38
2023-05-04T02:12:05.300Z,100652.34
2023-05-04T02:12:36.805Z,100650.44
2023-05-04T02:13:08.382Z,100649.47
2023-05-04T02:13:40.081Z,100652.13
2023-05-04T02:14:11.612Z,100647.78
2023-05-04T02:14:43.168Z,100653.09
2023-05-04T02:15:14.825Z,100653.00
2023-05-04T02:15:46.543Z,100650.34
2023-05-04T02:16:18.238Z,100654.88
2023-05-04T02:16:49.851Z,100652.34
2023-05-04T02:17:21.381Z,100654.88
2023-05-04T02:17:53.017Z,100649.69
2023-05-04T02:18:24.607Z,100652.50
2023-05-04T02:18:56.137Z,100647.88
2023-05-04T02:19:27.657Z,100654.88
2023-05-04T02:19:59.258Z,100652.13
2023-05-04T02:20:30.746Z,100652.13
2023-05-04T02:21:02.284Z,100648.72
2023-05-04T02:21:33.872Z,100647.03
2023-05-04T02:22:05.458Z,100654.19
2023-05-04T02:22:37.095Z,100649.78
2023-05-04T02:23:08.656Z,100650.72
2023-05-04T02:23:40.288Z,100650.63
2023-05-04T02:24:11.811Z,100650.44
2023-05-04T02:24:43.372Z,100649.69
2023-05-04T02:25:15.010Z,100650.63
2023-05-04T02:25:46.526Z,100654.19
2023-05-04T02:26:18.049Z,100648.91
2023-05-04T02:26:49.584Z,100652.69
2023-05-04T02:27:21.136Z,100648.91
2023-05-04T02:27:52.716Z,100652.34
2023-05-04T02:28:24.334Z,100652.50
2023-05-04T02:28:56.007Z,100649.09
2023-05-04T02:29:27.596Z,100651.66
2023-05-04T02:29:59.276Z,100650.63
2023-05-04T02:30:30.820Z,100643.78
2023-05-04T02:31:02.464Z,100648.25
2023-05-04T02:31:34.131Z,100656.84
2023-05-04T02:32:06.182Z,100646.25
2023-05-04T02:32:37.769Z,100644.66
2023-05-04T02:33:09.462Z,100647.41
2023-05-04T02:33:41.503Z,100641.25
2023-05-04T02:34:13.119Z,100636.81
2023-05-04T02:34:45.046Z,100638.50
2023-05-04T02:35:16.609Z,100644.59
2023-05-04T02:35:48.171Z,100641.06
2023-05-04T02:36:19.745Z,100640.88
2023-05-04T02:36:51.278Z,100643.63
2023-05-04T02:37:22.844Z,100639.28
2023-05-04T02:37:54.383Z,100635.94
2023-05-04T02:38:26.249Z,100636.81
2023-05-04T02:38:57.781Z,100637.66
2023-05-04T02:39:29.311Z,100642.97
2023-05-04T02:40:00.922Z,100638.50
2023-05-04T02:40:32.552Z,100639.47
2023-05-04T02:41:04.145Z,100634.00
2023-05-04T02:41:35.737Z,100636.66
2023-05-04T02:42:07.425Z,100635.59
2023-05-04T02:42:39.066Z,100637.31
2023-05-04T02:43:10.688Z,100631.16
2023-05-04T02:43:42.275Z,100634.66
2023-05-04T02:44:13.834Z,100634.75
2023-05-04T02:44:45.458Z,100638.31
2023-05-04T02:45:17.079Z,100634.00
2023-05-04T02:45:48.742Z,100634.00
2023-05-04T02:46:20.499Z,100631.34
2023-05-04T02:46:52.116Z,100639.19
2023-05-04T02:47:23.729Z,100634.09
2023-05-04T02:47:55.335Z,100640.22
2023-05-04T02:48:26.952Z,100638.50
2023-05-04T02:48:58.534Z,100635.78
2023-05-04T02:49:30.076Z,100636.03
2023-05-04T02:50:01.779Z,100635.09
2023-05-04T02:50:33.403Z,100636.81
2023-05-04T02:51:05.711Z,100640.41
2023-05-04T02:51:37.260Z,100644.66
2023-05-04T02:52:08.885Z,100637.75
2023-05-04T02:52:40.507Z,100642.97
2023-05-04T02:53:12.074Z,100644.75
2023-05-04T02:53:43.660Z,100641.94
2023-05-04T02:54:15.228Z,100637.47
2023-05-04T02:54:46.824Z,100636.81
2023-05-04T02:55:18.437Z,100641.34
2023-05-04T02:55:50.205Z,100636.91
2023-05-04T02:56:21.861Z,100638.69
2023-05-04T02:56:53.452Z,100643.97
2023-05-04T02:57:25.165Z,100642.13
2023-05-04T02:57:56.749Z,100640.31
2023-05-04T02:58:28.385Z,100635.94
2023-05-04T02:58:59.936Z,100645.59
2023-05-04T02:59:31.447Z,100642.97
2023-05-04T03:00:03.562Z,100643.78
2023-05-04T03:00:35.362Z,100641.16
2023-05-04T03:01:07.035Z,100644.75
2023-05-04T03:01:38.713Z,100640.41
2023-05-04T03:02:10.360Z,100640.31
2023-05-04T03:02:41.957Z,100640.41
2023-05-04T03:03:13.657Z,100635.94
2023-05-04T03:03:45.286Z,100632.38
2023-05-04T03:04:16.887Z,100643.63
2023-05-04T03:04:48.522Z,100636.81
2023-05-04T03:05:20.179Z,100637.00
2023-05-04T03:05:51.735Z,100639.66
2023-05-04T03:06:23.283Z,100630.88
2023-05-04T03:06:54.845Z,100636.03
2023-05-04T03:07:26.395Z,100638.69
2023-05-04T03:07:57.955Z,100638.69
2023-05-04T03:08:29.654Z,100636.81
2023-05-04T03:09:01.247Z,100638.69
2023-05-04T03:09:32.794Z,100635.28
2023-05-04T03:10:04.811Z,100636.25
2023-05-04T03:10:36.616Z,100636.25
2023-05-04T03:11:08.270Z,100633.41
2023-05-04T03:11:39.764Z,100638.69
2023-05-04T03:12:11.315Z,100641.44
2023-05-04T03:12:43.036Z,100636.53
2023-05-04T03:13:14.868Z,100634.81
2023-05-04T03:13:46.464Z,100640.94
2023-05-04T03:14:18.015Z,100639.91
2023-05-04T03:14:49.603Z,100633.88
2023-05-04T03:15:21.182Z,100630.09
2023-05-04T03:15:52.780Z,100635.38
2023-05-04T03:16:24.377Z,100631.97
2023-05-04T03:16:56.067Z,100633.78
2023-05-04T03:17:27.656Z,100632.81
2023-05-04T03:17:59.181Z,100635.47
2023-05-04T03:18:30.794Z,100632.06
2023-05-04T03:19:02.382Z,100630.34
2023-05-04T03:19:33.958Z,100629.50
2023-05-04T03:20:06.066Z,100623.28
2023-05-04T03:20:37.842Z,100625.06
2023-05-04T03:21:09.414Z,100633.88
2023-05-04T03:21:40.935Z,100626.78
2023-05-04T03:22:12.477Z,100626.03
2023-05-04T03:22:43.956Z,100626.97
2023-05-04T03:23:15.429Z,100624.03
2023-05-04T03:23:47.013Z,100632.06
2023-05-04T03:24:18.589Z,100630.25
2023-05-04T03:24:50.949Z,100623.38
2023-05-04T03:25:22.556Z,100629.50
2023-05-04T03:25:54.063Z,100626.03
2023-05-04T03:26:25.644Z,100621.66
2023-05-04T03:26:57.166Z,100626.97
2023-05-04T03:27:28.725Z,100628.50
2023-05-04T03:28:00.206Z,100628.50
2023-05-04T03:28:31.762Z,100623.28
2023-05-04T03:29:03.392Z,100626.88
2023-05-04T03:29:34.966Z,100627.81
2023-05-04T03:30:07.237Z,100622.41
2023-05-04T03:30:39.085Z,100626.03
2023-05-04T03:31:10.667Z,100629.34
2023-05-04T03:31:42.288Z,100625.84
2023-05-04T03:32:14.047Z,100624.22
2023-05-04T03:32:45.660Z,100627.81
2023-05-04T03:33:17.264Z,100619.03
2023-05-04T03:33:48.863Z,100629.59
2023-05-04T03:34:20.461Z,100621.75
2023-05-04T03:34:52.046Z,100628.00
2023-05-04T03:35:24.891Z,100625.47
2023-05-04T03:35:56.973Z,100620.16
2023-05-04T03:36:28.494Z,100619.19
2023-05-04T03:37:00.129Z,100621.84
2023-05-04T03:37:31.746Z,100621.00
2023-05-04T03:38:03.321Z,100623.56
2023-05-04T03:38:34.977Z,100612.22
2023-05-04T03:39:06.522Z,100617.53
2023-05-04T03:39:38.179Z,100621.84
2023-05-04T03:40:09.931Z,100616.28
2023-05-04T03:40:41.508Z,100614.47
2023-05-04T03:41:13.679Z,100609.19
2023-05-04T03:41:45.316Z,100610.25
2023-05-04T03:42:16.968Z,100612.81
2023-05-04T03:42:48.953Z,100612.13
2023-05-04T03:43:20.506Z,100612.91
2023-05-04T03:43:52.325Z,100610.16
2023-05-04T03:44:23.890Z,100614.47
2023-05-04T03:44:55.508Z,100613.66
2023-05-04T03:45:27.102Z,100608.34
2023-05-04T03:45:58.633Z,100607.34
2023-05-04T03:46:30.309Z,100610.91
2023-05-04T03:47:01.957Z,100613.47
2023-05-04T03:47:33.629Z,100616.38
2023-05-04T03:48:05.272Z,100612.81
2023-05-04T03:48:36.887Z,100611.19
2023-05-04T03:49:08.499Z,100604.97
2023-05-04T03:49:40.037Z,100612.13
2023-05-04T03:50:11.769Z,100607.78
2023-05-04T03:50:43.320Z,100607.88
2023-05-04T03:51:14.879Z,100612.06
2023-05-04T03:51:46.436Z,100610.34
2023-05-04T03:52:18.019Z,100613.06
2023-05-04T03:52:49.790Z,100606.94
2023-05-04T03:53:21.362Z,100605.22
2023-05-04T03:53:53.042Z,100603.44
2023-05-04T03:54:24.613Z,100615.81
2023-05-04T03:54:56.213Z,100609.75
2023-05-04T03:55:27.837Z,100607.97
2023-05-04T03:55:59.405Z,100603.59
2023-05-04T03:56:30.967Z,100606.16
2023-05-04T03:57:02.586Z,100603.69
2023-05-04T03:57:34.176Z,100601.84
2023-05-04T03:58:05.768Z,100601.03
2023-05-04T03:58:37.296Z,100602.94
2023-05-04T03:59:08.897Z,100605.50
2023-05-04T03:59:40.439Z,100600.88
2023-05-04T04:00:12.252Z,100600.88
2023-05-04T04:00:43.814Z,100599.09
2023-05-04T04:01:15.351Z,100598.22
2023-05-04T04:01:46.897Z,100601.84
2023-05-04T04:02:18.496Z,100599.19
2023-05-04T04:02:50.178Z,100604.56
2023-05-04T04:03:22.150Z,100602.75
2023-05-04T04:03:53.892Z,100595.75
2023-05-04T04:04:25.646Z,100598.63
2023-05-04T04:04:57.490Z,100597.56
2023-05-04T04:05:29.108Z,100593.19
2023-05-04T04:06:00.749Z,100599.53
2023-05-04T04:06:32.341Z,100601.25
2023-05-04T04:07:03.955Z,100598.69
2023-05-04T04:07:35.540Z,100598.63
2023-05-04T04:08:07.064Z,100598.63
2023-05-04T04:08:38.614Z,100602.94
2023-05-04T04:09:10.177Z,100601.13
2023-05-04T04:09:41.769Z,100602.94
2023-05-04T04:10:13.355Z,100595.00
2023-05-04T04:10:44.938Z,100600.28
2023-05-04T04:11:16.616Z,100601.03
2023-05-04T04:11:48.200Z,100597.56
2023-05-04T04:12:19.788Z,100602.75
2023-05-04T04:12:51.449Z,100600.03
2023-05-04T04:13:23.118Z,100598.22
2023-05-04T04:13:54.859Z,100603.91
2023-05-04T04:14:26.474Z,100605.50
2023-05-04T04:14:58.200Z,100604.56
2023-05-04T04:15:29.790Z,100604.47
2023-05-04T04:16:01.426Z,100602.66
2023-05-04T04:16:33.136Z,100603.69
2023-05-04T04:17:04.740Z,100603.69
2023-05-04T04:17:36.284Z,100599.38
2023-05-04T04:18:07.949Z,100599.53
2023-05-04T04:18:39.653Z,100600.47
2023-05-04T04:19:11.235Z,100601.25
2023-05-04T04:19:42.821Z,100597.81
2023-05-04T04:20:14.634Z,100599.72
2023-05-04T04:20:46.282Z,100596.16
2023-05-04T04:21:17.924Z,100595.28
2023-05-04T04:21:49.609Z,100598.88
2023-05-04T04:22:21.153Z,100604.16
2023-05-04T04:22:52.711Z,100598.97
2023-05-04T04:23:24.468Z,100595.38
2023-05-04T04:23:56.132Z,100598.00
2023-05-04T04:24:27.657Z,100591.78
2023-05-04T04:24:59.313Z,100597.91
2023-05-04T04:25:30.898Z,100589.16
2023-05-04T04:26:02.502Z,100596.25
2023-05-04T04:26:34.284Z,100596.31
2023-05-04T04:27:05.984Z,100592.72
2023-05-04T04:27:37.558Z,100597.00
2023-05-04T04:28:09.297Z,100598.69
2023-05-04T04:28:40.846Z,100596.25
2023-05-04T04:29:12.407Z,100594.34
2023-05-04T04:29:43.917Z,100590.84
2023-05-04T04:30:15.606Z,100594.25
2023-05-04T04:30:47.114Z,100590.84
2023-05-04T04:31:18.900Z,100592.44
2023-05-04T04:31:50.750Z,100594.25
2023-05-04T04:32:22.577Z,100591.69
2023-05-04T04:32:54.206Z,100591.59
2023-05-04T04:33:25.850Z,100590.25
2023-05-04T04:33:57.472Z,100593.78
2023-05-04T04:34:29.023Z,100593.78
2023-05-04T04:35:00.552Z,100584.97
2023-05-04T04:35:32.113Z,100598.19
2023-05-04T04:36:03.776Z,100587.59
2023-05-04T04:36:35.352Z,100590.06
2023-05-04T04:37:06.957Z,100591.03
2023-05-04T04:37:38.784Z,100600.66
2023-05-04T04:38:10.333Z,100604.16
2023-05-04T04:38:42.190Z,100600.66
2023-05-04T04:39:13.730Z,100600.75
2023-05-04T04:39:45.273Z,100603.28
2023-05-04T04:40:16.890Z,100599.81
2023-05-04T04:40:48.524Z,100603.47
2023-05-04T04:41:20.070Z,100596.31
2023-05-04T04:41:51.609Z,100597.16
2023-05-04T04:42:23.180Z,100589.41
2023-05-04T04:42:54.820Z,100598.19
2023-05-04T04:43:26.371Z,100598.19
2023-05-04T04:43:57.914Z,100597.34
2023-05-04T04:44:29.486Z,100597.16
2023-05-04T04:45:01.036Z,100599.06
2023-05-04T04:45:33.789Z,100601.78
2023-05-04T04:46:05.399Z,100598.19
2023-05-04T04:46:36.995Z,100605.38
2023-05-04T04:47:08.547Z,100600.06
2023-05-04T04:47:40.188Z,100600.84
2023-05-04T04:48:11.978Z,100596.50
2023-05-04T04:48:43.590Z,100608.97
2023-05-04T04:49:15.194Z,100608.97
2023-05-04T04:49:46.718Z,100602.81
2023-05-04T04:50:18.263Z,100600.25
2023-05-04T04:50:49.797Z,100603.00
2023-05-04T04:51:21.363Z,100601.13
2023-05-04T04:51:52.883Z,100601.97
2023-05-04T04:52:24.450Z,100597.63
2023-05-04T04:52:56.180Z,100602.81
2023-05-04T04:53:27.801Z,100605.38
2023-05-04T04:53:59.381Z,100600.00
2023-05-04T04:54:31.004Z,100606.13
2023-05-04T04:55:02.659Z,100607.00
2023-05-04T04:55:34.237Z,100604.34
2023-05-04T04:56:05.901Z,100605.94
2023-05-04T04:56:38.929Z,100609.47
2023-05-04T04:57:10.462Z,100605.00
2023-05-04T04:57:42.019Z,100599.81
2023-05-04T04:58:13.560Z,100613.03
2023-05-04T04:58:45.222Z,100604.34
2023-05-04T04:59:16.820Z,100606.03
2023-05-04T04:59:48.364Z,100614.75
2023-05-04T05:00:19.903Z,100609.47
2023-05-04T05:00:51.473Z,100605.00
2023-05-04T05:01:23.034Z,100609.47
2023-05-04T05:01:54.617Z,100606.91
2023-05-04T05:02:26.393Z,100609.53
2023-05-04T05:02:58.098Z,100613.03
2023-05-04T05:03:29.694Z,100610.31
2023-05-04T05:04:01.323Z,100618.31
2023-05-04T05:04:32.913Z,100608.75
2023-05-04T05:05:04.837Z,100608.00
2023-05-04T05:05:36.535Z,100609.72
2023-05-04T05:06:08.097Z,100614.06
2023-05-04T05:06:39.676Z,100604.34
2023-05-04T05:07:11.248Z,100614.84
2023-05-04T05:07:42.877Z,100612.09
2023-05-04T05:08:14.483Z,100612.00
2023-05-04T05:08:46.080Z,100610.38
2023-05-04T05:09:17.758Z,100603.28
2023-05-04T05:09:49.336Z,100611.22
2023-05-04T05:10:20.938Z,100610.31
2023-05-04T05:10:52.506Z,100613.88
2023-05-04T05:11:24.049Z,100605.00
2023-05-04T05:11:55.657Z,100605.84
2023-05-04T05:12:27.225Z,100612.19
2023-05-04T05:12:58.863Z,100604.34
2023-05-04T05:13:30.625Z,100607.00
2023-05-04T05:14:02.155Z,100605.19
2023-05-04T05:14:33.732Z,100604.09
2023-05-04T05:15:05.447Z,100607.66
2023-05-04T05:15:36.979Z,100606.81
2023-05-04T05:16:08.674Z,100600.75
2023-05-04T05:16:40.432Z,100602.47
2023-05-04T05:17:12.252Z,100601.63
2023-05-04T05:17:43.843Z,100599.91
2023-05-04T05:18:15.468Z,100605.19
2023-05-04T05:18:47.077Z,100606.81
2023-05-04T05:19:18.615Z,100604.25
2023-05-04T05:19:50.289Z,100606.81
2023-05-04T05:20:21.862Z,100597.16
2023-05-04T05:20:53.447Z,100598.00
2023-05-04T05:21:25.021Z,100597.16
2023-05-04T05:21:56.677Z,100593.78
2023-05-04T05:22:28.231Z,100595.66
2023-05-04T05:22:59.847Z,100589.50
2023-05-04T05:23:31.425Z,100594.03
2023-05-04T05:24:03.049Z,100588.56
2023-05-04T05:24:34.580Z,100598.19
2023-05-04T05:25:06.485Z,100588.47
2023-05-04T05:25:38.743Z,100584.78
2023-05-04T05:26:10.861Z,100594.44
2023-05-04T05:26:42.450Z,100586.41
2023-05-04T05:27:14.018Z,100592.72
2023-05-04T05:27:45.519Z,100587.59
2023-05-04T05:28:17.033Z,100585.84
2023-05-04T05:28:48.594Z,100589.16
2023-05-04T05:29:20.136Z,100583.94
2023-05-04T05:29:51.697Z,100587.25
2023-05-04T05:30:23.401Z,100589.97
2023-05-04T05:30:55.069Z,100586.59
2023-05-04T05:31:26.736Z,100585.84
2023-05-04T05:31:58.470Z,100584.78
2023-05-04T05:32:30.081Z,100583.00
2023-05-04T05:33:01.761Z,100589.06
2023-05-04T05:33:33.422Z,100592.53
2023-05-04T05:34:04.944Z,100593.41
2023-05-04T05:34:36.457Z,100592.53
2023-05-04T05:35:08.266Z,100586.41
2023-05-04T05:35:39.853Z,100590.94
2023-05-04T05:36:11.455Z,100590.94
2023-05-04T05:36:43.037Z,100594.44
2023-05-04T05:37:14.607Z,100586.59
2023-05-04T05:37:47.368Z,100583.84
2023-05-04T05:38:18.907Z,100589.06
2023-05-04T05:38:50.553Z,100594.34
2023-05-04T05:39:22.107Z,100593.50
2023-05-04T05:39:53.689Z,100595.19
2023-05-04T05:40:25.261Z,100594.25
2023-05-04T05:40:56.792Z,100592.53
2023-05-04T05:41:28.299Z,100594.25
2023-05-04T05:41:59.871Z,100594.25
2023-05-04T05:42:31.447Z,100590.56
2023-05-04T05:43:03.217Z,100593.31
2023-05-04T05:43:34.790Z,100588.97
2023-05-04T05:44:06.375Z,100597.66
2023-05-04T05:44:37.944Z,100597.66
2023-05-04T05:45:10.228Z,100594.06
2023-05-04T05:45:41.768Z,100592.38
2023-05-04T05:46:14.911Z,100596.72
2023-05-04T05:46:46.505Z,100601.03
2023-05-04T05:47:18.089Z,100595.75
2023-05-04T05:47:49.723Z,100594.06
2023-05-04T05:48:21.213Z,100590.47
2023-05-04T05:48:52.825Z,100591.34
2023-05-04T05:49:24.374Z,100596.63
2023-05-04T05:49:55.944Z,100593.91
2023-05-04T05:50:27.598Z,100601.03
2023-05-04T05:50:59.505Z,100601.91
2023-05-04T05:51:31.080Z,100603.59
2023-05-04T05:52:02.714Z,100596.53
2023-05-04T05:52:34.265Z,100598.31
2023-05-04T05:53:05.815Z,100597.66
2023-05-04T05:53:37.378Z,100604.75
2023-05-04T05:54:08.941Z,100601.03
2023-05-04T05:54:40.443Z,100601.84
2023-05-04T05:55:12.227Z,100599.94
2023-05-04T05:55:43.739Z,100595.50
2023-05-04T05:56:15.310Z,100598.13
2023-05-04T05:56:46.882Z,100583.31
2023-05-04T05:57:18.433Z,100600.03
2023-05-04T05:57:49.978Z,100592.09
2023-05-04T05:58:21.516Z,100594.75
2023-05-04T05:58:53.123Z,100595.56
2023-05-04T05:59:24.671Z,100593.91
2023-05-04T05:59:56.217Z,100592.19
2023-05-04T06:00:27.871Z,100603.50
2023-05-04T06:00:59.428Z,100594.66
2023-05-04T06:01:30.978Z,100598.13
2023-05-04T06:02:02.472Z,100596.38
2023-05-04T06:02:34.173Z,100591.91
2023-05-04T06:03:05.872Z,100589.25
2023-05-04T06:03:37.817Z,100595.41